Main page
METAR-TAF:

METAR-TAF

Airports :

Base Aérea de Armilla

Granada, Spain

latitude: 37-08N, longitude: 003-38-08W, elevation: 700 m

Current weather observation

The report was made 9 hours and 27 minutes ago, at 18:00 UTC
Wind 7 kt from the South/Southwest
Temperature 13°C
Humidity 67%
Pressure 1022 hPa
Visibility 10 km or more
no clouds below 1500 m and no cumulonimbus

METAR: LEGA 201800Z 20007KT CAVOK 13/07 Q1022

Time: 04:27 (03:27 UTC)

Forecast

The report was made 13 hours and 27 minutes ago, at 14:00 UTC
Forecast valid from 20 at 15 UTC to 20 at 24 UTC
Wind 9 kt from the South
Visibility 10 km or more
Few clouds at a height of 5000 ft

TAF: LEGA 201400Z 2015/2024 18009KT 9999 FEW050

Weather observations and forecasts of more than 4000 airports (METAR and TAF reports).

The available stations are represented by yellow and red dots on the map.

Hover mouse over dot to see the name of the station.

Then click to see weather observations and forecasts.

To change the map : click on the green buttons with a black cross to zoom in, on the green button with a dash to zoom out, or on the green arrows for adjacent maps.


METAR-TAF: